Terminal Aerodrome Forecast
Issued by NWS Jacksonville, FL

Home | Current Version | Previous Version | Text Only | Print | Product List | Glossary On
Versions: 1 2 3 4 5 6 7 8 9 10 11 12 13 14 15 16 17 18 19 20
000
FTUS42 KJAX 201739
TAFJAX
TAF
KJAX 201739Z 2018/2118 10008KT P6SM VCSH SCT015 OVC090
      TEMPO 2018/2022 3SM SHRA BKN015
     FM210000 10006KT P6SM VCSH SCT025 BKN050 OVC100
     FM211400 12008KT P6SM VCSH SCT025 BKN050 BKN120=

USA.gov is the U.S. government's official web portal to all federal, state and local government web resources and services.